createdAt,value
2019-03-11T00:00:38.597Z,7.74
2019-03-11T00:03:08.244Z,7.63
2019-03-11T00:05:37.688Z,7.64
2019-03-11T00:08:07.118Z,7.64
2019-03-11T00:10:36.555Z,7.61
2019-03-11T00:13:06.122Z,7.51
2019-03-11T00:15:35.561Z,7.47
2019-03-11T00:18:05.002Z,7.51
2019-03-11T00:20:34.425Z,7.50
2019-03-11T00:23:03.852Z,7.41
2019-03-11T00:25:33.294Z,7.42
2019-03-11T00:28:02.720Z,7.35
2019-03-11T00:30:32.167Z,7.35
2019-03-11T00:33:01.592Z,7.29
2019-03-11T00:35:31.032Z,7.21
2019-03-11T00:38:00.461Z,7.21
2019-03-11T00:40:29.897Z,7.17
2019-03-11T00:42:59.322Z,7.17
2019-03-11T00:45:28.756Z,7.20
2019-03-11T00:48:02.244Z,7.28
2019-03-11T00:50:29.336Z,7.23
2019-03-11T00:52:58.844Z,7.15
2019-03-11T00:55:28.272Z,7.05
2019-03-11T00:57:59.341Z,7.02
2019-03-11T01:00:37.638Z,6.95
2019-03-11T01:03:07.067Z,6.94
2019-03-11T01:05:36.578Z,6.87
2019-03-11T01:08:06.470Z,6.83
2019-03-11T01:10:35.905Z,6.70
2019-03-11T01:13:05.405Z,6.75
2019-03-11T01:15:34.847Z,6.77
2019-03-11T01:18:04.288Z,6.76
2019-03-11T01:20:33.711Z,6.68
2019-03-11T01:23:03.141Z,6.69
2019-03-11T01:25:32.572Z,6.69
2019-03-11T01:28:02.006Z,6.52
2019-03-11T01:30:31.449Z,6.51
2019-03-11T01:33:00.873Z,6.51
2019-03-11T01:35:30.324Z,6.53
2019-03-11T01:37:59.747Z,6.60
2019-03-11T01:40:29.181Z,6.63
2019-03-11T01:42:58.602Z,6.57
2019-03-11T01:45:28.042Z,6.50
2019-03-11T01:47:59.923Z,6.46
2019-03-11T01:50:28.631Z,6.42
2019-03-11T01:52:58.063Z,6.47
2019-03-11T01:55:27.575Z,6.40
2019-03-11T01:57:57.017Z,6.33
2019-03-11T02:00:26.825Z,6.34
2019-03-11T02:02:56.249Z,6.38
2019-03-11T02:05:25.691Z,6.39
2019-03-11T02:07:55.123Z,6.37
2019-03-11T02:10:24.554Z,6.35
2019-03-11T02:12:53.979Z,6.32
2019-03-11T02:15:23.429Z,6.22
2019-03-11T02:17:52.856Z,6.21
2019-03-11T02:20:22.292Z,6.14
2019-03-11T02:22:51.724Z,6.13
2019-03-11T02:25:21.154Z,6.11
2019-03-11T02:27:50.761Z,6.14
2019-03-11T02:30:20.181Z,6.10
2019-03-11T02:32:50.098Z,6.12
2019-03-11T02:35:30.220Z,6.19
2019-03-11T02:37:59.730Z,6.24
2019-03-11T02:40:29.237Z,6.17
2019-03-11T02:42:58.663Z,6.15
2019-03-11T02:45:28.094Z,6.25
2019-03-11T02:47:57.521Z,6.25
2019-03-11T02:50:26.949Z,6.26
2019-03-11T02:52:56.385Z,6.32
2019-03-11T02:55:25.813Z,6.37
2019-03-11T02:57:55.256Z,6.32
2019-03-11T03:00:24.686Z,6.40
2019-03-11T03:02:55.763Z,6.35
2019-03-11T03:05:35.758Z,6.32
2019-03-11T03:08:05.213Z,6.20
2019-03-11T03:10:34.619Z,6.23
2019-03-11T03:13:04.071Z,6.24
2019-03-11T03:15:33.501Z,6.28
2019-03-11T03:18:02.942Z,6.27
2019-03-11T03:20:32.375Z,6.28
2019-03-11T03:23:01.811Z,6.24
2019-03-11T03:25:34.576Z,6.31
2019-03-11T03:28:02.570Z,6.37
2019-03-11T03:30:32.218Z,6.36
2019-03-11T03:33:01.638Z,6.44
2019-03-11T03:35:31.072Z,6.43
2019-03-11T03:38:00.508Z,6.37
2019-03-11T03:40:29.978Z,6.35
2019-03-11T03:42:59.625Z,6.38
2019-03-11T03:45:32.598Z,6.41
2019-03-11T03:48:02.381Z,6.35
2019-03-11T03:50:36.177Z,6.42
2019-03-11T03:53:05.952Z,6.35
2019-03-11T03:55:35.854Z,6.33
2019-03-11T03:58:05.297Z,6.51
2019-03-11T04:00:34.805Z,6.48
2019-03-11T04:03:04.232Z,6.44
2019-03-11T04:05:33.651Z,6.38
2019-03-11T04:08:03.098Z,6.40
2019-03-11T04:10:33.258Z,6.45
2019-03-11T04:13:02.759Z,6.47
2019-03-11T04:15:32.165Z,6.49
2019-03-11T04:18:01.597Z,6.44
2019-03-11T04:20:31.022Z,6.44
2019-03-11T04:23:00.796Z,6.47
2019-03-11T04:25:30.381Z,6.41
2019-03-11T04:27:59.866Z,6.36
2019-03-11T04:30:30.030Z,6.37
2019-03-11T04:32:59.473Z,6.49
2019-03-11T04:35:28.970Z,6.36
2019-03-11T04:37:58.406Z,6.39
2019-03-11T04:40:27.831Z,6.25
2019-03-11T04:42:57.275Z,6.15
2019-03-11T04:45:26.708Z,6.26
2019-03-11T04:47:56.143Z,6.29
2019-03-11T04:50:25.583Z,6.28
2019-03-11T04:52:55.012Z,6.28
2019-03-11T04:55:24.445Z,6.31
2019-03-11T04:57:55.685Z,6.25
2019-03-11T05:00:29.090Z,6.08
2019-03-11T05:02:58.523Z,6.09
2019-03-11T05:05:28.035Z,6.10
2019-03-11T05:07:59.944Z,6.08
2019-03-11T05:10:28.834Z,6.05
2019-03-11T05:12:58.258Z,5.95
2019-03-11T05:15:27.726Z,5.81
2019-03-11T05:17:57.221Z,5.83
2019-03-11T05:20:26.684Z,5.81
2019-03-11T05:22:56.112Z,5.74
2019-03-11T05:25:25.555Z,5.75
2019-03-11T05:27:54.975Z,5.73
2019-03-11T05:30:24.417Z,5.72
2019-03-11T05:32:53.845Z,5.66
2019-03-11T05:35:23.291Z,5.57
2019-03-11T05:37:52.719Z,5.60
2019-03-11T05:40:22.822Z,5.47
2019-03-11T05:42:52.253Z,5.39
2019-03-11T05:45:21.969Z,5.42
2019-03-11T05:47:51.413Z,5.35
2019-03-11T05:50:20.833Z,5.30
2019-03-11T05:52:50.260Z,5.32
2019-03-11T05:55:19.696Z,5.27
2019-03-11T05:57:49.130Z,5.24
2019-03-11T06:03:00.797Z,5.14
2019-03-11T06:05:30.236Z,4.99
2019-03-11T06:07:59.661Z,5.02
2019-03-11T06:10:29.118Z,5.08
2019-03-11T06:12:58.541Z,5.13
2019-03-11T06:15:27.983Z,5.07
2019-03-11T06:17:57.408Z,5.09
2019-03-11T06:20:32.528Z,5.11
2019-03-11T06:23:03.609Z,5.10
2019-03-11T06:25:33.062Z,5.08
2019-03-11T06:28:03.067Z,5.08
2019-03-11T06:30:32.830Z,4.98
2019-03-11T06:33:02.256Z,4.92
2019-03-11T06:35:31.696Z,5.02
2019-03-11T06:38:01.129Z,4.98
2019-03-11T06:40:30.570Z,5.15
2019-03-11T06:42:59.995Z,5.30
2019-03-11T06:45:29.439Z,5.43
2019-03-11T06:47:58.866Z,5.55
2019-03-11T06:50:28.381Z,5.70
2019-03-11T06:52:57.807Z,5.81
2019-03-11T06:55:27.239Z,5.88
2019-03-11T06:57:56.668Z,5.91
2019-03-11T07:00:26.107Z,5.94
2019-03-11T07:02:55.532Z,6.03
2019-03-11T07:05:24.970Z,6.05
2019-03-11T07:07:54.397Z,6.06
2019-03-11T07:10:24.675Z,6.11
2019-03-11T07:12:54.098Z,6.09
2019-03-11T07:15:23.535Z,6.16
2019-03-11T07:17:52.977Z,6.18
2019-03-11T07:20:22.422Z,6.15
2019-03-11T07:22:51.855Z,6.16
2019-03-11T07:25:21.275Z,6.18
2019-03-11T07:27:50.710Z,6.21
2019-03-11T07:30:20.858Z,6.23
2019-03-11T07:32:50.272Z,6.26
2019-03-11T07:35:19.721Z,6.26
2019-03-11T07:37:49.166Z,6.32
2019-03-11T07:40:28.993Z,6.33
2019-03-11T07:42:50.659Z,6.33
2019-03-11T07:45:20.109Z,6.28
2019-03-11T07:47:49.533Z,6.26
2019-03-11T07:50:18.982Z,6.27
2019-03-11T07:52:48.551Z,6.26
2019-03-11T07:55:17.967Z,6.31
2019-03-11T07:57:47.390Z,6.37
2019-03-11T08:00:20.392Z,6.25
2019-03-11T08:02:49.821Z,6.25
2019-03-11T08:05:19.269Z,6.28
2019-03-11T08:07:48.734Z,6.22
2019-03-11T08:10:25.666Z,6.10
2019-03-11T08:12:55.106Z,5.93
2019-03-11T08:15:24.543Z,5.88
2019-03-11T08:17:54.322Z,5.70
2019-03-11T08:20:23.884Z,5.65
2019-03-11T08:22:53.388Z,5.62
2019-03-11T08:25:22.828Z,5.59
2019-03-11T08:27:52.260Z,5.60
2019-03-11T08:30:25.116Z,5.50
2019-03-11T08:32:54.571Z,5.59
2019-03-11T08:35:23.988Z,5.45
2019-03-11T08:37:53.402Z,5.38
2019-03-11T08:40:23.007Z,5.05
2019-03-11T08:42:52.436Z,5.00
2019-03-11T08:45:21.873Z,4.98
2019-03-11T08:47:51.308Z,5.00
2019-03-11T08:50:20.744Z,4.98
2019-03-11T08:52:50.184Z,4.88
2019-03-11T08:55:19.609Z,5.04
2019-03-11T08:57:49.050Z,5.11
2019-03-11T09:00:25.361Z,5.20
2019-03-11T09:02:54.780Z,5.34
2019-03-11T09:05:24.223Z,5.50
2019-03-11T09:07:53.647Z,5.58
2019-03-11T09:10:23.078Z,5.63
2019-03-11T09:12:52.525Z,5.72
2019-03-11T09:15:22.393Z,5.74
2019-03-11T09:17:51.836Z,5.86
2019-03-11T09:20:21.407Z,5.97
2019-03-11T09:22:50.854Z,6.08
2019-03-11T09:25:25.436Z,6.12
2019-03-11T09:27:54.862Z,6.15
2019-03-11T09:30:24.722Z,6.16
2019-03-11T09:32:54.159Z,6.14
2019-03-11T09:35:23.596Z,6.21
2019-03-11T09:37:53.108Z,6.28
2019-03-11T09:40:22.803Z,6.31
2019-03-11T09:42:52.253Z,6.32
2019-03-11T09:45:24.129Z,6.32
2019-03-11T09:47:53.015Z,6.40
2019-03-11T09:50:22.436Z,6.40
2019-03-11T09:52:51.888Z,6.50
2019-03-11T09:55:29.273Z,6.51
2019-03-11T09:57:58.884Z,6.52
2019-03-11T10:00:34.383Z,6.56
2019-03-11T10:03:03.829Z,6.65
2019-03-11T10:05:33.255Z,6.58
2019-03-11T10:08:02.875Z,6.60
2019-03-11T10:10:32.318Z,6.56
2019-03-11T10:13:01.812Z,6.65
2019-03-11T10:15:31.241Z,6.69
2019-03-11T10:18:00.687Z,6.70
2019-03-11T10:20:30.119Z,6.74
2019-03-11T10:22:59.571Z,6.81
2019-03-11T10:25:29.010Z,6.86
2019-03-11T10:27:58.519Z,6.87
2019-03-11T10:30:27.947Z,6.93
2019-03-11T10:32:57.404Z,6.85
2019-03-11T10:35:31.763Z,6.84
2019-03-11T10:37:59.634Z,6.94
2019-03-11T10:40:32.982Z,6.92
2019-03-11T10:43:02.427Z,6.87
2019-03-11T10:45:32.390Z,6.95
2019-03-11T10:48:01.973Z,6.99
2019-03-11T10:50:31.406Z,7.04
2019-03-11T10:53:00.843Z,7.11
2019-03-11T10:55:30.274Z,7.09
2019-03-11T10:57:59.877Z,7.09
2019-03-11T11:00:32.693Z,7.09
2019-03-11T11:03:02.297Z,7.18
2019-03-11T11:05:31.825Z,7.18
2019-03-11T11:08:01.269Z,7.10
2019-03-11T11:10:30.707Z,7.04
2019-03-11T11:13:00.174Z,7.13
2019-03-11T11:15:31.714Z,7.13
2019-03-11T11:18:01.173Z,7.05
2019-03-11T11:20:30.606Z,7.12
2019-03-11T11:23:00.123Z,7.03
2019-03-11T11:25:31.688Z,7.00
2019-03-11T11:28:01.134Z,6.95
2019-03-11T11:30:31.869Z,6.97
2019-03-11T11:33:01.376Z,6.88
2019-03-11T11:35:30.817Z,6.91
2019-03-11T11:38:00.246Z,6.94
2019-03-11T11:40:31.097Z,6.91
2019-03-11T11:43:00.522Z,6.82
2019-03-11T11:45:32.733Z,6.76
2019-03-11T11:48:02.242Z,6.68
2019-03-11T11:50:31.740Z,6.65
2019-03-11T11:53:01.180Z,6.69
2019-03-11T11:55:30.612Z,6.73
2019-03-11T11:58:00.062Z,6.67
2019-03-11T12:00:34.432Z,6.83
2019-03-11T12:03:03.868Z,6.88
2019-03-11T12:05:33.299Z,7.03
2019-03-11T12:08:02.765Z,7.00
2019-03-11T12:10:34.457Z,7.05
2019-03-11T12:13:04.373Z,7.17
2019-03-11T12:15:33.918Z,7.32
2019-03-11T12:18:03.718Z,7.39
2019-03-11T12:20:33.218Z,7.43
2019-03-11T12:23:02.664Z,7.44
2019-03-11T12:25:32.102Z,7.33
2019-03-11T12:28:01.620Z,7.23
2019-03-11T12:30:33.915Z,7.19
2019-03-11T12:33:03.349Z,7.20
2019-03-11T12:35:32.822Z,7.13
2019-03-11T12:38:02.258Z,7.19
2019-03-11T12:40:31.694Z,7.33
2019-03-11T12:43:01.138Z,7.38
2019-03-11T12:45:30.575Z,7.42
2019-03-11T12:48:00.021Z,7.49
2019-03-11T12:50:31.372Z,7.51
2019-03-11T12:53:00.813Z,7.51
2019-03-11T12:55:30.312Z,7.56
2019-03-11T12:57:59.754Z,7.48
2019-03-11T13:00:29.189Z,7.47
2019-03-11T13:02:58.621Z,7.56
2019-03-11T13:05:28.054Z,7.45
2019-03-11T13:07:57.500Z,7.46
2019-03-11T13:10:32.781Z,7.53
2019-03-11T13:13:02.227Z,7.59
2019-03-11T13:15:31.709Z,7.61
2019-03-11T13:18:37.121Z,7.71
2019-03-11T13:21:11.501Z,7.80
2019-03-11T13:23:41.692Z,7.78
2019-03-11T13:26:11.248Z,7.84
2019-03-11T13:28:40.687Z,7.87
2019-03-11T13:31:10.114Z,7.87
2019-03-11T13:33:39.550Z,7.72
2019-03-11T13:36:09.814Z,7.75
2019-03-11T13:38:39.244Z,7.65
2019-03-11T13:41:08.675Z,7.72
2019-03-11T13:43:38.141Z,7.80
2019-03-11T13:46:07.550Z,7.71
2019-03-11T13:48:36.973Z,7.76
2019-03-11T13:51:06.551Z,7.73
2019-03-11T13:53:36.047Z,7.73
2019-03-11T13:56:05.477Z,7.73
2019-03-11T13:58:34.906Z,7.77
2019-03-11T14:01:04.372Z,7.71
2019-03-11T14:03:33.784Z,7.74
2019-03-11T14:06:03.223Z,7.68
2019-03-11T14:08:32.651Z,7.80
2019-03-11T14:11:02.091Z,7.85
2019-03-11T14:13:31.885Z,7.85
2019-03-11T14:16:01.332Z,7.88
2019-03-11T14:18:30.758Z,7.83
2019-03-11T14:21:00.227Z,7.80
2019-03-11T14:23:29.650Z,7.78
2019-03-11T14:25:59.134Z,7.81
2019-03-11T14:28:28.513Z,7.84
2019-03-11T14:30:57.958Z,7.82
2019-03-11T14:33:27.386Z,7.91
2019-03-11T14:35:56.833Z,7.89
2019-03-11T14:38:26.257Z,7.83
2019-03-11T14:40:55.698Z,7.89
2019-03-11T14:43:25.120Z,7.81
2019-03-11T14:45:54.555Z,7.69
2019-03-11T14:48:23.988Z,7.66
2019-03-11T14:50:55.136Z,7.65
2019-03-11T14:53:24.645Z,7.58
2019-03-11T14:55:54.078Z,7.56
2019-03-11T14:58:29.423Z,7.58
2019-03-11T15:00:54.690Z,7.62
2019-03-11T15:03:24.139Z,7.68
2019-03-11T15:05:54.650Z,7.61
2019-03-11T15:08:24.183Z,7.63
2019-03-11T15:10:53.616Z,7.66
2019-03-11T15:13:23.058Z,7.84
2019-03-11T15:15:52.495Z,7.88
2019-03-11T15:18:21.927Z,7.81
2019-03-11T15:20:51.367Z,7.77
2019-03-11T15:23:21.117Z,7.74
2019-03-11T15:25:50.714Z,7.76
2019-03-11T15:28:20.157Z,7.73
2019-03-11T15:30:49.590Z,7.70
2019-03-11T15:33:19.019Z,7.74
2019-03-11T15:35:48.461Z,8.01
2019-03-11T15:38:17.969Z,7.95
2019-03-11T15:40:47.412Z,8.04
2019-03-11T15:43:16.846Z,9.28
2019-03-11T15:45:46.304Z,12.80
2019-03-11T15:48:15.750Z,14.97
2019-03-11T15:50:45.194Z,13.76
2019-03-11T15:53:14.664Z,12.43
2019-03-11T15:55:44.833Z,10.97
2019-03-11T15:58:14.533Z,10.00
2019-03-11T16:00:45.858Z,9.43
2019-03-11T16:03:15.287Z,8.72
2019-03-11T16:05:44.737Z,8.42
2019-03-11T16:08:14.158Z,8.06
2019-03-11T16:10:43.592Z,7.94
2019-03-11T16:13:13.036Z,7.83
2019-03-11T16:15:42.540Z,7.66
2019-03-11T16:18:11.963Z,6.93
2019-03-11T16:20:41.411Z,6.36
2019-03-11T16:23:10.854Z,6.26
2019-03-11T16:25:40.307Z,8.81
2019-03-11T16:28:09.745Z,11.01
2019-03-11T16:30:39.194Z,13.39
2019-03-11T16:33:08.629Z,14.14
2019-03-11T16:35:38.078Z,14.91
2019-03-11T16:38:07.543Z,14.82
2019-03-11T16:40:36.973Z,13.38
2019-03-11T16:43:06.424Z,10.64
2019-03-11T16:45:36.009Z,9.27
2019-03-11T16:48:05.529Z,8.63
2019-03-11T16:50:34.957Z,8.01
2019-03-11T16:53:04.415Z,7.44
2019-03-11T16:55:41.523Z,7.12
2019-03-11T16:58:10.971Z,6.70
2019-03-11T17:00:42.180Z,6.44
2019-03-11T17:03:11.623Z,6.12
2019-03-11T17:05:41.058Z,6.13
2019-03-11T17:08:10.574Z,6.19
2019-03-11T17:10:40.003Z,6.00
2019-03-11T17:13:09.444Z,5.97
2019-03-11T17:15:38.888Z,5.72
2019-03-11T17:18:08.331Z,5.77
2019-03-11T17:20:37.763Z,5.78
2019-03-11T17:23:07.275Z,5.68
2019-03-11T17:25:36.727Z,5.60
2019-03-11T17:28:06.176Z,5.62
2019-03-11T17:30:35.684Z,5.51
2019-03-11T17:33:05.196Z,5.61
2019-03-11T17:35:34.637Z,5.60
2019-03-11T17:38:04.081Z,5.49
2019-03-11T17:40:33.504Z,5.47
2019-03-11T17:43:02.967Z,5.41
2019-03-11T17:45:32.458Z,5.49
2019-03-11T17:48:01.969Z,5.47
2019-03-11T17:50:31.394Z,5.57
2019-03-11T17:53:00.835Z,5.39
2019-03-11T17:55:30.260Z,5.47
2019-03-11T17:57:59.695Z,5.48
2019-03-11T18:00:30.911Z,5.41
2019-03-11T18:03:00.421Z,5.45
2019-03-11T18:05:29.987Z,5.35
2019-03-11T18:07:59.435Z,5.38
2019-03-11T18:10:28.861Z,5.35
2019-03-11T18:12:58.301Z,5.39
2019-03-11T18:15:27.797Z,5.29
2019-03-11T18:17:59.015Z,5.32
2019-03-11T18:20:28.447Z,5.33
2019-03-11T18:22:57.877Z,5.31
2019-03-11T18:25:27.304Z,5.28
2019-03-11T18:27:58.527Z,5.33
2019-03-11T18:30:32.144Z,5.29
2019-03-11T18:33:01.591Z,5.27
2019-03-11T18:35:31.065Z,5.31
2019-03-11T18:38:04.412Z,5.36
2019-03-11T18:40:31.725Z,5.25
2019-03-11T18:43:01.202Z,5.20
2019-03-11T18:45:30.604Z,5.21
2019-03-11T18:48:00.033Z,5.18
2019-03-11T18:50:29.459Z,5.18
2019-03-11T18:52:58.891Z,5.18
2019-03-11T18:55:28.326Z,5.20
2019-03-11T18:57:57.777Z,5.26
2019-03-11T19:00:27.201Z,5.34
2019-03-11T19:02:56.607Z,5.37
2019-03-11T19:05:26.527Z,5.42
2019-03-11T19:07:55.944Z,5.37
2019-03-11T19:10:25.420Z,5.31
2019-03-11T19:12:54.835Z,5.30
2019-03-11T19:15:27.419Z,5.37
2019-03-11T19:17:56.843Z,5.41
2019-03-11T19:20:26.826Z,5.44
2019-03-11T19:22:56.634Z,5.40
2019-03-11T19:25:26.034Z,5.41
2019-03-11T19:27:55.556Z,5.40
2019-03-11T19:30:26.905Z,5.45
2019-03-11T19:32:56.323Z,5.51
2019-03-11T19:35:25.736Z,5.40
2019-03-11T19:37:55.190Z,5.34
2019-03-11T19:40:28.197Z,5.37
2019-03-11T19:42:57.625Z,5.27
2019-03-11T19:45:27.116Z,5.24
2019-03-11T19:47:56.551Z,5.26
2019-03-11T19:50:25.988Z,5.27
2019-03-11T19:52:58.982Z,5.28
2019-03-11T19:55:26.615Z,5.27
2019-03-11T19:57:56.136Z,5.26
2019-03-11T20:00:26.271Z,5.19
2019-03-11T20:02:55.726Z,5.24
2019-03-11T20:05:30.535Z,5.23
2019-03-11T20:07:59.920Z,5.29
2019-03-11T20:10:29.342Z,5.29
2019-03-11T20:12:58.831Z,5.18
2019-03-11T20:15:28.273Z,5.22
2019-03-11T20:17:57.740Z,5.18
2019-03-11T20:20:27.282Z,5.13
2019-03-11T20:22:56.702Z,5.01
2019-03-11T20:25:34.892Z,5.07
2019-03-11T20:28:04.377Z,5.03
2019-03-11T20:30:33.952Z,5.00
2019-03-11T20:33:04.216Z,5.02
2019-03-11T20:35:33.979Z,5.02
2019-03-11T20:38:03.395Z,5.01
2019-03-11T20:40:32.894Z,5.07
2019-03-11T20:43:02.398Z,5.00
2019-03-11T20:45:31.832Z,5.07
2019-03-11T20:48:01.253Z,5.11
2019-03-11T20:50:41.569Z,5.12
2019-03-11T20:53:05.319Z,5.12
2019-03-11T20:55:34.231Z,5.16
2019-03-11T20:58:03.703Z,5.18
2019-03-11T21:00:33.169Z,5.15
2019-03-11T21:03:02.560Z,5.14
2019-03-11T21:05:38.481Z,5.17
2019-03-11T21:08:08.065Z,5.14
2019-03-11T21:10:37.554Z,5.13
2019-03-11T21:13:07.099Z,5.14
2019-03-11T21:15:36.582Z,5.18
2019-03-11T21:18:06.105Z,5.17
2019-03-11T21:20:35.645Z,5.23
2019-03-11T21:23:05.067Z,5.14
2019-03-11T21:25:34.529Z,5.16
2019-03-11T21:28:03.950Z,5.10
2019-03-11T21:30:33.422Z,5.11
2019-03-11T21:33:02.951Z,5.17
2019-03-11T21:35:32.431Z,5.16
2019-03-11T21:38:01.918Z,5.19
2019-03-11T21:40:31.434Z,5.14
2019-03-11T21:43:00.923Z,5.15
2019-03-11T21:45:34.576Z,5.13
2019-03-11T21:48:01.569Z,5.12
2019-03-11T21:50:31.178Z,5.18
2019-03-11T21:53:00.633Z,5.20
2019-03-11T21:55:30.121Z,5.28
2019-03-11T21:58:12.189Z,5.32
2019-03-11T22:00:35.212Z,5.37
2019-03-11T22:03:01.859Z,5.33
2019-03-11T22:05:31.299Z,5.36
2019-03-11T22:08:00.732Z,5.39
2019-03-11T22:10:30.171Z,5.39
2019-03-11T22:12:59.600Z,5.43
2019-03-11T22:15:29.120Z,5.36
2019-03-11T22:18:00.191Z,5.36
2019-03-11T22:20:29.660Z,5.37
2019-03-11T22:22:59.089Z,5.45
2019-03-11T22:25:28.529Z,5.48
2019-03-11T22:27:57.947Z,5.39
2019-03-11T22:30:27.458Z,5.44
2019-03-11T22:32:56.886Z,5.44
2019-03-11T22:35:29.225Z,5.44
2019-03-11T22:37:59.024Z,5.40
2019-03-11T22:40:28.460Z,5.48
2019-03-11T22:42:57.952Z,5.48
2019-03-11T22:45:27.383Z,5.48
2019-03-11T22:47:56.821Z,5.49
2019-03-11T22:50:26.257Z,5.52
2019-03-11T22:52:55.679Z,5.50
2019-03-11T22:55:25.194Z,5.43
2019-03-11T22:57:56.032Z,5.45
2019-03-11T23:00:46.747Z,5.41
2019-03-11T23:03:16.236Z,5.38
2019-03-11T23:05:57.551Z,5.30
2019-03-11T23:08:16.882Z,5.20
2019-03-11T23:10:46.320Z,5.18
2019-03-11T23:13:15.747Z,5.18
2019-03-11T23:15:45.257Z,5.14
2019-03-11T23:18:14.758Z,5.10
2019-03-11T23:20:44.267Z,5.12
2019-03-11T23:23:13.761Z,5.11
2019-03-11T23:25:43.294Z,5.12
2019-03-11T23:28:12.723Z,5.11
2019-03-11T23:30:42.174Z,5.12
2019-03-11T23:33:11.641Z,5.14
2019-03-11T23:35:41.102Z,5.19
2019-03-11T23:38:10.530Z,5.17
2019-03-11T23:40:40.056Z,5.24
2019-03-11T23:43:09.454Z,5.15
2019-03-11T23:45:38.893Z,5.18
2019-03-11T23:48:08.325Z,5.18
2019-03-11T23:50:37.788Z,5.11
2019-03-11T23:53:07.209Z,5.10
2019-03-11T23:55:36.944Z,5.16
2019-03-11T23:58:06.353Z,5.09
